Time;durP1;ratioP1;P1;durP2;ratioP2;P2;SDS_P1;SDS_P2;PMS_P1;PMS_P2;Temp;Humidity;BMP_temperature;BMP_pressure;BME280_temperature;BME280_humidity;BME280_pressure;Samples;Min_cycle;Max_cycle;Signal;HPM_P1;HPM_P2
2023/10/06 00:02:28;;;;;;;6.95;3.25;;;11.10;99.90;;;;;;5043649;28;20558;-76
2023/10/06 00:04:56;;;;;;;5.30;2.67;;;11.10;99.90;;;;;;5044492;28;20052;-77
2023/10/06 00:07:24;;;;;;;4.90;3.17;;;11.10;99.90;;;;;;5021643;28;20053;-77
2023/10/06 00:09:53;;;;;;;5.82;2.47;;;11.00;99.90;;;;;;5041631;28;20444;-76
2023/10/06 00:12:20;;;;;;;4.68;2.60;;;11.00;99.90;;;;;;5048113;28;20045;-76
2023/10/06 00:14:50;;;;;;;8.32;3.35;;;11.00;99.90;;;;;;5044708;28;20049;-77
2023/10/06 00:17:17;;;;;;;5.32;2.80;;;11.00;99.90;;;;;;5038962;28;20555;-77
2023/10/06 00:19:45;;;;;;;4.63;2.80;;;11.00;99.90;;;;;;5042397;28;20049;-76
2023/10/06 00:22:17;;;;;;;4.47;2.20;;;10.90;99.90;;;;;;5040174;28;20049;-76
2023/10/06 00:24:46;;;;;;;5.97;3.08;;;10.90;99.90;;;;;;5047232;28;20103;-77
2023/10/06 00:27:14;;;;;;;6.72;2.92;;;10.90;99.90;;;;;;5048844;28;20262;-77
2023/10/06 00:30:11;;;;;;;4.88;2.88;;;10.90;99.90;;;;;;5046987;28;20053;-77
2023/10/06 00:32:31;;;;;;;4.43;2.35;;;10.90;99.90;;;;;;5038441;28;20077;-77
2023/10/06 00:35:10;;;;;;;7.70;2.22;;;10.90;99.90;;;;;;5046324;28;20053;-76
2023/10/06 00:37:39;;;;;;;8.60;2.80;;;10.90;99.90;;;;;;5042512;28;20111;-76
2023/10/06 00:40:19;;;;;;;7.70;2.97;;;10.80;99.90;;;;;;5051834;28;20417;-77
2023/10/06 00:43:00;;;;;;;4.40;2.55;;;10.80;99.90;;;;;;5044326;28;20053;-76
2023/10/06 00:45:30;;;;;;;5.63;3.15;;;10.80;99.90;;;;;;5044554;28;20053;-76
2023/10/06 00:47:57;;;;;;;4.15;2.67;;;10.80;99.90;;;;;;5039141;28;20064;-76
2023/10/06 00:50:24;;;;;;;6.13;3.25;;;10.80;99.90;;;;;;5041828;28;20427;-76
2023/10/06 00:52:52;;;;;;;3.90;2.38;;;10.80;99.90;;;;;;5042909;28;20045;-77
2023/10/06 00:55:19;;;;;;;5.30;3.05;;;10.80;99.90;;;;;;5049241;28;20086;-77
2023/10/06 00:57:53;;;;;;;4.35;2.80;;;10.80;99.90;;;;;;5042953;28;20052;-76
2023/10/06 01:00:20;;;;;;;5.95;3.05;;;10.70;99.90;;;;;;5044021;28;20522;-76
2023/10/06 01:02:48;;;;;;;4.43;2.85;;;10.70;99.90;;;;;;5036465;28;20127;-76
2023/10/06 01:05:16;;;;;;;7.88;3.10;;;10.70;99.90;;;;;;5044784;28;20424;-76
2023/10/06 01:07:46;;;;;;;5.18;3.00;;;10.70;99.90;;;;;;5048031;28;20471;-76
2023/10/06 01:10:27;;;;;;;7.55;3.17;;;10.70;99.90;;;;;;5049154;28;20048;-76
2023/10/06 01:12:56;;;;;;;5.15;2.60;;;10.70;99.90;;;;;;5043119;28;20082;-76
2023/10/06 01:15:29;;;;;;;9.35;2.72;;;10.70;99.90;;;;;;5042729;28;20132;-76
2023/10/06 01:17:57;;;;;;;9.25;3.30;;;10.70;99.90;;;;;;5036595;28;20041;-77
2023/10/06 01:20:41;;;;;;;7.45;3.75;;;10.70;99.90;;;;;;5043023;28;20084;-76
2023/10/06 01:23:19;;;;;;;6.72;2.80;;;10.70;99.90;;;;;;5050553;28;20053;-76
2023/10/06 01:25:48;;;;;;;7.28;2.75;;;10.70;99.90;;;;;;5042299;28;20481;-76
2023/10/06 01:28:15;;;;;;;5.72;3.28;;;10.60;99.90;;;;;;5045211;28;20044;-77
2023/10/06 01:30:42;;;;;;;6.05;3.00;;;10.60;99.90;;;;;;5038465;28;20489;-76
2023/10/06 01:33:10;;;;;;;6.57;2.83;;;10.60;99.90;;;;;;5019729;28;21038;-76
2023/10/06 01:35:42;;;;;;;7.15;3.33;;;10.60;99.90;;;;;;5044636;28;20086;-76
2023/10/06 01:38:22;;;;;;;5.38;2.90;;;10.60;99.90;;;;;;5050074;28;20496;-76
2023/10/06 01:40:53;;;;;;;5.90;2.58;;;10.60;99.90;;;;;;5041536;28;20108;-76
2023/10/06 01:43:25;;;;;;;7.70;3.65;;;10.50;99.90;;;;;;5042726;28;20059;-76
2023/10/06 01:45:52;;;;;;;5.45;2.78;;;10.50;99.90;;;;;;5039264;28;20140;-76
2023/10/06 01:50:49;;;;;;;5.20;2.78;;;10.50;99.90;;;;;;5048726;28;20115;-77
2023/10/06 01:53:19;;;;;;;7.88;2.85;;;10.50;99.90;;;;;;5050167;28;20044;-77
2023/10/06 01:55:52;;;;;;;8.20;3.53;;;10.50;99.90;;;;;;5041499;28;20095;-76
2023/10/06 01:58:19;;;;;;;6.75;2.65;;;10.40;99.90;;;;;;5049746;28;20048;-76
2023/10/06 02:00:48;;;;;;;6.85;2.83;;;10.40;99.90;;;;;;5035665;28;20060;-76
2023/10/06 02:03:20;;;;;;;9.27;3.35;;;10.40;99.90;;;;;;5048522;28;20554;-75
2023/10/06 02:05:47;;;;;;;5.78;3.42;;;10.40;99.90;;;;;;5051906;28;20133;-76
2023/10/06 02:08:21;;;;;;;5.25;3.20;;;10.40;99.90;;;;;;5052766;28;20136;-76
2023/10/06 02:10:50;;;;;;;7.10;3.08;;;10.40;99.90;;;;;;5043273;28;20492;-76
2023/10/06 02:13:21;;;;;;;5.03;2.70;;;10.40;99.90;;;;;;5048667;28;20114;-76
2023/10/06 02:15:58;;;;;;;7.82;3.50;;;10.30;99.90;;;;;;5041846;28;20520;-76
2023/10/06 02:18:35;;;;;;;4.47;2.58;;;10.30;99.90;;;;;;5049345;28;20059;-75
2023/10/06 02:21:10;;;;;;;5.78;3.53;;;10.30;99.90;;;;;;5050390;28;20392;-76
2023/10/06 02:23:38;;;;;;;5.10;2.75;;;10.30;99.90;;;;;;5038735;28;20103;-76
2023/10/06 02:26:13;;;;;;;6.05;3.40;;;10.30;99.90;;;;;;5043419;28;20596;-76
2023/10/06 02:28:44;;;;;;;5.13;2.95;;;10.30;99.90;;;;;;5034792;28;20099;-76
2023/10/06 02:31:11;;;;;;;5.72;3.08;;;10.30;99.90;;;;;;5039768;28;20045;-76
2023/10/06 02:33:39;;;;;;;4.82;2.78;;;10.30;99.90;;;;;;5040418;28;20045;-76
2023/10/06 02:36:16;;;;;;;6.90;3.22;;;10.30;99.90;;;;;;5031455;28;20102;-76
2023/10/06 02:38:48;;;;;;;5.72;3.03;;;10.20;99.90;;;;;;5048013;28;20543;-76
2023/10/06 02:41:18;;;;;;;4.88;2.60;;;10.20;99.90;;;;;;5042772;28;20061;-76
2023/10/06 02:43:50;;;;;;;9.38;2.90;;;10.20;99.90;;;;;;5046738;28;20069;-77
2023/10/06 02:46:22;;;;;;;4.85;2.72;;;10.20;99.90;;;;;;5041243;28;20054;-77
2023/10/06 02:48:50;;;;;;;6.90;2.78;;;10.20;99.90;;;;;;5051444;28;20413;-77
2023/10/06 02:51:32;;;;;;;6.93;3.17;;;10.20;99.90;;;;;;5048348;28;20049;-76
2023/10/06 02:54:13;;;;;;;5.00;2.90;;;10.20;99.90;;;;;;5046433;28;20077;-77
2023/10/06 02:56:41;;;;;;;4.30;2.28;;;10.20;99.90;;;;;;5038992;28;20048;-76
2023/10/06 02:59:25;;;;;;;5.70;3.13;;;10.20;99.90;;;;;;5045467;28;20467;-77
2023/10/06 03:01:57;;;;;;;6.43;2.97;;;10.10;99.90;;;;;;5050049;28;20084;-76
2023/10/06 03:04:26;;;;;;;7.28;2.67;;;10.10;99.90;;;;;;5033626;28;20194;-77
2023/10/06 03:06:57;;;;;;;6.22;2.78;;;10.10;99.90;;;;;;5029461;28;20477;-76
2023/10/06 03:09:37;;;;;;;5.85;3.40;;;10.10;99.90;;;;;;5045800;28;20045;-77
2023/10/06 03:14:50;;;;;;;6.75;2.88;;;10.10;99.90;;;;;;5046594;28;20041;-76
2023/10/06 03:17:19;;;;;;;6.85;3.70;;;10.10;99.90;;;;;;5053308;28;20045;-76
2023/10/06 03:22:37;;;;;;;6.15;2.88;;;10.10;99.90;;;;;;5048683;28;20098;-76
2023/10/06 03:25:14;;;;;;;7.05;2.65;;;10.00;99.90;;;;;;5040976;28;20045;-75
2023/10/06 03:27:41;;;;;;;5.00;3.20;;;10.00;99.90;;;;;;5044998;28;20581;-77
2023/10/06 03:30:17;;;;;;;7.60;3.55;;;10.00;99.90;;;;;;5046662;28;20083;-76
2023/10/06 03:32:49;;;;;;;8.02;2.70;;;10.00;99.90;;;;;;5050197;28;20050;-76
2023/10/06 03:35:22;;;;;;;9.63;3.40;;;10.00;99.90;;;;;;5045565;28;20124;-76
2023/10/06 03:37:52;;;;;;;8.20;3.35;;;10.00;99.90;;;;;;5046761;28;20049;-76
2023/10/06 03:40:44;;;;;;;5.57;3.30;;;9.90;99.90;;;;;;5039786;28;20049;-77
2023/10/06 03:43:15;;;;;;;5.22;2.63;;;9.90;99.90;;;;;;5047007;28;20064;-77
2023/10/06 03:45:45;;;;;;;6.45;3.50;;;9.90;99.90;;;;;;5049424;28;20045;-77
2023/10/06 03:48:12;;;;;;;4.38;2.53;;;9.90;99.90;;;;;;5048882;28;20095;-76
2023/10/06 03:50:41;;;;;;;5.50;3.03;;;9.90;99.90;;;;;;5041082;28;20057;-76
2023/10/06 03:53:12;;;;;;;6.85;2.90;;;9.90;99.90;;;;;;5046283;28;20077;-76
2023/10/06 03:55:44;;;;;;;6.55;3.08;;;9.90;99.90;;;;;;5041603;28;20041;-76
2023/10/06 03:58:14;;;;;;;6.28;3.10;;;9.80;99.90;;;;;;5049452;28;20041;-76
2023/10/06 04:00:47;;;;;;;7.07;3.38;;;9.80;99.90;;;;;;5048227;28;20447;-76
2023/10/06 04:03:17;;;;;;;7.78;3.63;;;9.80;99.90;;;;;;5047972;28;20045;-76
2023/10/06 04:05:48;;;;;;;7.90;3.85;;;9.80;99.90;;;;;;5044075;28;20045;-76
2023/10/06 04:08:22;;;;;;;6.40;3.25;;;9.80;99.90;;;;;;5045007;28;20568;-76
2023/10/06 04:10:57;;;;;;;4.72;2.53;;;9.80;99.90;;;;;;5035134;28;20056;-76
2023/10/06 04:13:25;;;;;;;8.38;3.63;;;9.80;99.90;;;;;;5052862;28;20077;-76
2023/10/06 04:15:54;;;;;;;6.05;3.13;;;9.80;99.90;;;;;;5046754;28;20049;-76
2023/10/06 04:18:22;;;;;;;9.52;3.35;;;9.80;99.90;;;;;;5046349;28;20551;-76
2023/10/06 04:20:51;;;;;;;7.28;3.50;;;9.70;99.90;;;;;;5039790;28;20497;-76
2023/10/06 04:23:21;;;;;;;8.30;3.55;;;9.80;99.90;;;;;;5045173;28;20053;-76
2023/10/06 04:25:49;;;;;;;6.57;3.53;;;9.70;99.90;;;;;;5039367;28;20515;-76
2023/10/06 04:28:17;;;;;;;6.20;2.85;;;9.70;99.90;;;;;;5050849;28;20067;-76
2023/10/06 04:30:45;;;;;;;4.85;2.90;;;9.70;99.90;;;;;;5047423;28;20049;-76
2023/10/06 04:33:15;;;;;;;9.55;3.42;;;9.70;99.90;;;;;;5044088;28;20048;-76
2023/10/06 04:35:55;;;;;;;5.45;3.05;;;9.70;99.90;;;;;;5041543;28;20048;-76
2023/10/06 04:38:23;;;;;;;6.88;3.95;;;9.70;99.90;;;;;;5043584;28;20107;-77
2023/10/06 04:40:51;;;;;;;7.85;3.75;;;9.70;99.90;;;;;;5040861;28;20048;-77
2023/10/06 04:43:18;;;;;;;8.23;4.10;;;9.70;99.90;;;;;;5049262;28;20052;-76
2023/10/06 04:45:47;;;;;;;10.90;3.63;;;9.70;99.90;;;;;;5046864;28;20051;-76
2023/10/06 04:48:15;;;;;;;7.97;4.40;;;9.70;99.90;;;;;;5043451;28;20160;-76
2023/10/06 04:50:44;;;;;;;7.32;4.28;;;9.70;99.90;;;;;;5040245;28;20037;-76
2023/10/06 04:53:12;;;;;;;7.35;4.15;;;9.70;99.90;;;;;;5030834;28;20481;-76
2023/10/06 04:55:39;;;;;;;7.07;3.92;;;9.60;99.90;;;;;;5048510;28;20037;-76
2023/10/06 04:58:09;;;;;;;8.38;3.95;;;9.60;99.90;;;;;;5045397;28;20489;-76
2023/10/06 05:00:36;;;;;;;8.25;4.10;;;9.60;99.90;;;;;;5046469;28;20040;-76
2023/10/06 05:03:04;;;;;;;8.50;4.15;;;9.60;99.90;;;;;;5034249;28;20052;-76
2023/10/06 05:05:36;;;;;;;7.97;4.22;;;9.60;99.90;;;;;;5023732;28;20044;-76
2023/10/06 05:08:02;;;;;;;8.85;4.00;;;9.60;99.90;;;;;;5024470;28;20120;-76
2023/10/06 05:10:31;;;;;;;7.95;4.30;;;9.60;99.90;;;;;;5047308;28;20051;-76
2023/10/06 05:13:06;;;;;;;8.35;4.28;;;9.60;99.90;;;;;;5044413;28;20525;-76
2023/10/06 05:15:34;;;;;;;10.75;4.72;;;9.60;99.90;;;;;;5047199;28;20048;-76
2023/10/06 05:18:03;;;;;;;10.05;4.97;;;9.60;99.90;;;;;;5039895;28;20119;-76
2023/10/06 05:20:32;;;;;;;10.35;4.10;;;9.50;99.90;;;;;;5039800;28;20055;-76
2023/10/06 05:23:09;;;;;;;8.27;4.63;;;9.60;99.90;;;;;;5041301;28;20497;-75
2023/10/06 05:25:37;;;;;;;9.75;4.43;;;9.60;99.90;;;;;;5052428;28;20120;-76
2023/10/06 05:28:04;;;;;;;8.38;3.67;;;9.60;99.90;;;;;;5025477;28;20050;-77
2023/10/06 05:30:31;;;;;;;7.50;3.53;;;9.60;99.90;;;;;;5045788;28;20052;-76
2023/10/06 05:32:59;;;;;;;5.03;3.67;;;9.50;99.90;;;;;;5036547;28;20064;-76
2023/10/06 05:35:29;;;;;;;6.18;3.45;;;9.50;99.90;;;;;;5038288;28;20053;-76
2023/10/06 05:37:57;;;;;;;6.28;3.70;;;9.50;99.90;;;;;;5044401;28;20421;-76
2023/10/06 05:40:25;;;;;;;8.55;5.13;;;9.50;99.90;;;;;;5050748;28;20049;-76
2023/10/06 05:42:52;;;;;;;9.82;4.28;;;9.50;99.90;;;;;;5043497;28;20132;-77
2023/10/06 05:45:19;;;;;;;9.70;4.15;;;9.50;99.90;;;;;;5046526;28;20053;-78
2023/10/06 05:47:50;;;;;;;8.63;3.28;;;9.50;99.90;;;;;;5041783;28;20041;-77
2023/10/06 05:50:21;;;;;;;7.57;3.58;;;9.50;99.90;;;;;;5041563;28;20053;-76
2023/10/06 05:52:51;;;;;;;10.52;4.00;;;9.50;99.90;;;;;;5048403;28;20076;-77
2023/10/06 05:55:19;;;;;;;8.95;3.55;;;9.50;99.90;;;;;;5047265;28;20551;-76
2023/10/06 05:57:55;;;;;;;7.30;3.70;;;9.50;99.90;;;;;;5043955;28;20041;-76
2023/10/06 06:00:29;;;;;;;10.02;4.28;;;9.50;99.90;;;;;;5046854;28;20072;-76
2023/10/06 06:02:58;;;;;;;9.55;3.40;;;9.50;99.90;;;;;;5041501;28;20547;-76
2023/10/06 06:05:30;;;;;;;5.95;3.47;;;9.50;99.90;;;;;;5040847;28;20052;-76
2023/10/06 06:07:59;;;;;;;9.18;3.70;;;9.50;99.90;;;;;;5047091;28;20055;-76
2023/10/06 06:10:28;;;;;;;9.15;4.45;;;9.50;99.90;;;;;;5048695;28;20048;-75
2023/10/06 06:12:56;;;;;;;7.82;3.88;;;9.50;99.90;;;;;;5040790;28;20041;-77
2023/10/06 06:15:25;;;;;;;11.75;3.90;;;9.50;99.90;;;;;;5043762;28;20444;-76
2023/10/06 06:17:52;;;;;;;7.43;3.40;;;9.50;99.90;;;;;;5040708;28;20044;-76
2023/10/06 06:20:22;;;;;;;9.27;3.75;;;9.50;99.90;;;;;;5039843;28;20052;-76
2023/10/06 06:22:58;;;;;;;11.80;4.13;;;9.60;99.90;;;;;;5047857;28;20568;-76
2023/10/06 06:25:28;;;;;;;6.45;3.95;;;9.60;99.90;;;;;;5047661;28;20071;-76
2023/10/06 06:27:59;;;;;;;7.57;4.32;;;9.60;99.90;;;;;;5039754;28;20103;-76
2023/10/06 06:30:26;;;;;;;10.13;4.35;;;9.60;99.90;;;;;;5043344;28;20115;-76
2023/10/06 06:32:54;;;;;;;12.07;4.13;;;9.60;99.90;;;;;;5037611;28;20068;-76
2023/10/06 06:35:23;;;;;;;6.85;3.55;;;9.60;99.90;;;;;;5041196;28;20053;-76
2023/10/06 06:37:59;;;;;;;10.15;3.83;;;9.70;99.90;;;;;;5046496;28;20132;-75
2023/10/06 06:40:30;;;;;;;7.35;3.50;;;9.70;99.90;;;;;;5047102;28;20044;-77
2023/10/06 06:42:59;;;;;;;4.72;3.30;;;9.70;99.90;;;;;;5041619;28;20045;-76
2023/10/06 06:45:28;;;;;;;6.15;3.42;;;9.70;99.90;;;;;;5045585;28;20049;-76
2023/10/06 06:47:55;;;;;;;7.18;3.95;;;9.70;99.90;;;;;;5040221;28;20132;-76
2023/10/06 06:50:22;;;;;;;10.45;4.40;;;9.80;99.90;;;;;;5047418;28;20476;-76
2023/10/06 06:52:54;;;;;;;11.60;4.57;;;9.80;99.90;;;;;;5047882;28;20147;-75
2023/10/06 06:55:21;;;;;;;8.98;3.92;;;9.80;99.90;;;;;;5048037;28;20067;-76
2023/10/06 06:57:49;;;;;;;7.32;4.20;;;9.90;99.90;;;;;;5042628;28;20088;-74
2023/10/06 07:00:23;;;;;;;13.23;4.25;;;9.90;99.90;;;;;;5044406;28;20401;-76
2023/10/06 07:02:52;;;;;;;8.20;4.60;;;9.90;99.90;;;;;;5042615;28;20132;-77
2023/10/06 07:05:22;;;;;;;11.15;4.80;;;10.00;99.90;;;;;;5049109;28;20060;-76
2023/10/06 07:07:52;;;;;;;9.77;5.28;;;10.00;99.90;;;;;;5048292;28;20497;-76
2023/10/06 07:10:22;;;;;;;7.57;4.85;;;10.10;99.90;;;;;;5031906;28;20065;-76
2023/10/06 07:12:50;;;;;;;15.25;4.55;;;10.10;99.90;;;;;;5041689;28;20045;-76
2023/10/06 07:15:19;;;;;;;10.30;4.88;;;10.10;99.90;;;;;;5048927;28;20041;-76
2023/10/06 07:17:49;;;;;;;9.18;4.88;;;10.20;99.90;;;;;;5036425;28;20041;-76
2023/10/06 07:20:24;;;;;;;13.32;5.32;;;10.20;99.90;;;;;;5051355;28;20465;-77
2023/10/06 07:22:53;;;;;;;12.77;4.90;;;10.30;99.90;;;;;;5044235;28;20045;-76
2023/10/06 07:25:21;;;;;;;8.65;5.15;;;10.30;99.90;;;;;;5047037;28;20095;-76
2023/10/06 07:27:50;;;;;;;10.75;5.68;;;10.40;99.90;;;;;;5033419;28;20119;-76
2023/10/06 07:30:17;;;;;;;12.40;5.43;;;10.40;99.90;;;;;;5045299;28;20471;-76
2023/10/06 07:32:44;;;;;;;17.90;5.93;;;10.40;99.90;;;;;;5048411;28;20123;-76
2023/10/06 07:35:14;;;;;;;14.27;6.28;;;10.50;99.90;;;;;;5050287;28;20041;-76
2023/10/06 07:37:43;;;;;;;14.60;6.25;;;10.50;99.90;;;;;;5029441;28;20107;-76
2023/10/06 07:40:14;;;;;;;11.00;6.65;;;10.60;99.90;;;;;;5046862;28;20490;-76
2023/10/06 07:42:43;;;;;;;11.55;6.38;;;10.60;99.90;;;;;;5040370;28;20135;-76
2023/10/06 07:45:11;;;;;;;14.85;6.75;;;10.60;99.90;;;;;;5045465;28;20049;-76
2023/10/06 07:47:42;;;;;;;10.93;5.82;;;10.70;99.90;;;;;;5051425;28;20073;-77
2023/10/06 07:50:13;;;;;;;16.17;6.28;;;10.70;99.90;;;;;;5037624;28;20060;-76
2023/10/06 07:52:41;;;;;;;13.48;6.95;;;10.80;99.90;;;;;;5044686;28;20050;-77
2023/10/06 07:55:09;;;;;;;17.10;7.28;;;10.80;99.90;;;;;;5046142;28;20077;-76
2023/10/06 07:57:41;;;;;;;15.23;7.03;;;10.90;99.90;;;;;;5038699;28;20042;-76
2023/10/06 08:00:09;;;;;;;13.40;7.28;;;11.00;99.90;;;;;;5044543;28;20049;-76
2023/10/06 08:02:39;;;;;;;12.85;7.00;;;11.10;99.90;;;;;;5049790;28;20048;-76
2023/10/06 08:05:13;;;;;;;11.95;7.70;;;11.10;99.90;;;;;;5048855;28;20099;-76
2023/10/06 08:07:42;;;;;;;18.58;8.73;;;11.20;99.90;;;;;;5043995;28;20049;-76
2023/10/06 08:10:16;;;;;;;14.98;7.30;;;11.20;99.90;;;;;;5045138;28;20124;-77
2023/10/06 08:12:44;;;;;;;14.88;7.72;;;11.20;99.90;;;;;;5037503;28;20115;-76
2023/10/06 08:15:16;;;;;;;12.25;7.40;;;11.30;99.90;;;;;;5046576;28;20123;-76
2023/10/06 08:17:52;;;;;;;14.48;7.75;;;11.40;99.90;;;;;;5049988;28;20100;-77
2023/10/06 08:20:24;;;;;;;16.98;7.90;;;11.40;99.90;;;;;;5044352;28;20046;-77
2023/10/06 08:22:50;;;;;;;17.48;8.50;;;11.50;99.90;;;;;;5044890;28;20575;-77
2023/10/06 08:25:18;;;;;;;16.98;8.40;;;11.50;99.90;;;;;;5026370;28;20046;-77
2023/10/06 08:27:50;;;;;;;14.23;8.55;;;11.60;99.90;;;;;;5043008;28;20052;-76
2023/10/06 08:30:21;;;;;;;16.42;8.48;;;11.70;99.90;;;;;;5048797;28;20067;-76
2023/10/06 08:32:52;;;;;;;15.20;9.32;;;11.80;99.90;;;;;;5051588;28;20047;-77
2023/10/06 08:35:20;;;;;;;19.63;9.43;;;11.90;99.90;;;;;;5042809;28;20492;-77
2023/10/06 08:37:49;;;;;;;14.40;8.57;;;11.90;99.90;;;;;;5044313;28;20036;-76
2023/10/06 08:40:24;;;;;;;16.33;8.32;;;12.00;99.90;;;;;;5043543;28;20076;-77
2023/10/06 08:42:59;;;;;;;18.58;8.52;;;12.10;99.90;;;;;;5020382;28;20076;-77
2023/10/06 08:45:28;;;;;;;14.50;8.05;;;12.10;99.90;;;;;;5048940;28;20092;-77
2023/10/06 08:47:58;;;;;;;15.73;8.35;;;12.20;99.90;;;;;;5049284;28;20439;-77
2023/10/06 08:50:32;;;;;;;17.45;9.35;;;12.20;99.90;;;;;;5042965;28;20057;-76
2023/10/06 08:53:01;;;;;;;17.58;8.63;;;12.30;99.90;;;;;;5041613;28;20052;-76
2023/10/06 08:55:28;;;;;;;14.55;8.38;;;12.30;99.90;;;;;;5042878;28;20505;-77
2023/10/06 08:57:59;;;;;;;17.13;8.13;;;12.40;99.90;;;;;;5039596;28;20132;-77
2023/10/06 09:00:33;;;;;;;21.20;8.55;;;12.40;99.90;;;;;;5047401;28;20111;-77
2023/10/06 09:03:09;;;;;;;14.65;7.95;;;12.50;99.90;;;;;;5047531;28;20044;-77
2023/10/06 09:05:41;;;;;;;15.60;7.13;;;12.50;99.90;;;;;;5043477;28;20081;-76
2023/10/06 09:08:15;;;;;;;13.63;7.55;;;12.60;99.90;;;;;;5040539;28;20323;-77
2023/10/06 09:10:53;;;;;;;15.52;7.35;;;12.70;99.90;;;;;;5041428;28;20508;-76
2023/10/06 09:13:21;;;;;;;15.70;6.55;;;12.70;99.90;;;;;;5047003;28;20085;-77
2023/10/06 09:15:59;;;;;;;13.05;7.18;;;12.80;99.90;;;;;;5037562;28;20410;-76
2023/10/06 09:18:31;;;;;;;14.82;7.00;;;12.90;99.90;;;;;;5045158;28;20540;-77
2023/10/06 09:21:19;;;;;;;13.23;7.18;;;12.90;99.90;;;;;;5039340;28;20049;-76
2023/10/06 09:23:46;;;;;;;12.75;5.95;;;13.00;99.90;;;;;;5043129;28;20115;-77
2023/10/06 09:26:24;;;;;;;11.73;6.82;;;13.10;99.90;;;;;;5042336;28;20048;-77
2023/10/06 09:28:55;;;;;;;12.13;6.43;;;13.20;99.90;;;;;;5051248;28;20056;-77
2023/10/06 09:31:44;;;;;;;11.82;6.30;;;13.20;99.90;;;;;;5026558;28;20075;-77
2023/10/06 09:34:32;;;;;;;12.30;6.05;;;13.30;99.90;;;;;;5042182;28;20042;-76
2023/10/06 09:37:18;;;;;;;12.63;6.15;;;13.40;99.90;;;;;;5036680;28;20124;-76
2023/10/06 09:39:54;;;;;;;11.48;5.90;;;13.50;99.90;;;;;;5043264;28;20048;-77
2023/10/06 09:42:24;;;;;;;11.73;5.10;;;13.50;99.90;;;;;;5047655;28;20073;-77
2023/10/06 09:45:15;;;;;;;10.50;5.60;;;13.60;99.90;;;;;;5048122;28;20584;-77
2023/10/06 09:48:02;;;;;;;12.00;5.55;;;13.70;99.90;;;;;;5048057;28;20049;-76
2023/10/06 09:50:31;;;;;;;16.15;5.90;;;13.70;99.90;;;;;;5038578;28;20144;-77
2023/10/06 09:53:03;;;;;;;10.60;5.88;;;13.80;99.90;;;;;;5042012;28;20423;-77
2023/10/06 09:55:31;;;;;;;15.50;7.63;;;13.80;99.90;;;;;;5044611;28;20523;-77
2023/10/06 09:57:58;;;;;;;8.65;5.10;;;13.90;99.90;;;;;;5050079;28;20041;-77
2023/10/06 10:00:29;;;;;;;11.93;6.30;;;13.90;99.90;;;;;;5042359;28;20128;-77
2023/10/06 10:02:57;;;;;;;11.13;5.22;;;14.00;99.90;;;;;;5046520;28;20067;-76
2023/10/06 10:05:25;;;;;;;15.98;5.93;;;14.00;99.90;;;;;;5037725;28;20132;-77
2023/10/06 10:07:54;;;;;;;12.63;6.25;;;14.10;99.90;;;;;;5042377;28;20053;-77
2023/10/06 10:10:22;;;;;;;13.45;5.80;;;14.10;99.90;;;;;;5048022;28;20049;-77
2023/10/06 10:13:33;;;;;;;11.55;5.25;;;14.10;99.90;;;;;;5049765;28;20405;-78
2023/10/06 10:16:12;;;;;;;19.30;6.20;;;14.20;99.90;;;;;;4948310;28;20463;-76
2023/10/06 10:18:44;;;;;;;11.45;5.03;;;14.20;99.90;;;;;;5038269;28;20123;-76
2023/10/06 10:21:13;;;;;;;13.98;4.97;;;14.30;99.90;;;;;;5042943;28;20184;-77
2023/10/06 10:23:40;;;;;;;14.20;5.00;;;14.30;99.90;;;;;;5051528;28;20107;-77
2023/10/06 10:26:22;;;;;;;10.77;4.85;;;14.30;99.90;;;;;;5049471;28;20504;-76
2023/10/06 10:29:12;;;;;;;12.68;5.72;;;14.40;99.90;;;;;;5050547;28;20053;-77
2023/10/06 10:31:42;;;;;;;11.60;5.20;;;14.40;99.90;;;;;;5045142;28;20049;-77
2023/10/06 10:34:25;;;;;;;11.70;5.28;;;14.40;99.90;;;;;;5042694;28;20378;-77
2023/10/06 10:37:05;;;;;;;9.13;4.28;;;14.50;99.90;;;;;;5039940;28;20087;-77
2023/10/06 10:39:48;;;;;;;8.20;4.85;;;14.60;99.90;;;;;;5049994;28;20046;-77
2023/10/06 10:42:21;;;;;;;11.40;4.82;;;14.60;99.90;;;;;;5049522;28;20076;-77
2023/10/06 10:44:49;;;;;;;10.15;5.22;;;14.70;99.90;;;;;;5048065;28;20053;-78
2023/10/06 10:47:20;;;;;;;11.20;6.13;;;14.70;99.90;;;;;;5046616;28;20040;-78
2023/10/06 10:49:47;;;;;;;12.85;4.60;;;14.70;99.90;;;;;;5044837;28;20060;-78
2023/10/06 10:52:14;;;;;;;15.05;5.47;;;14.80;99.90;;;;;;5043945;28;20090;-77
2023/10/06 10:54:43;;;;;;;12.60;4.82;;;14.80;99.90;;;;;;5052551;28;20102;-78
2023/10/06 10:57:21;;;;;;;11.02;4.53;;;14.90;99.90;;;;;;5051609;28;20373;-77
2023/10/06 11:02:40;;;;;;;10.38;4.28;;;15.00;99.90;;;;;;5051121;28;20045;-78
2023/10/06 11:05:07;;;;;;;18.42;4.38;;;15.00;99.90;;;;;;5044182;28;20045;-77
2023/10/06 11:07:35;;;;;;;15.43;4.70;;;15.10;99.90;;;;;;5051242;28;20049;-78
2023/10/06 11:10:03;;;;;;;8.65;3.92;;;15.10;99.90;;;;;;5047986;28;20041;-78
2023/10/06 11:12:35;;;;;;;8.77;4.22;;;15.20;99.90;;;;;;5050408;28;20119;-77
2023/10/06 11:15:13;;;;;;;12.23;4.35;;;15.20;99.90;;;;;;5045369;28;20056;-78
2023/10/06 11:17:42;;;;;;;8.52;4.25;;;15.30;99.90;;;;;;5051113;28;20500;-78
2023/10/06 11:20:16;;;;;;;10.40;4.65;;;15.40;99.90;;;;;;5046420;28;20152;-78
2023/10/06 11:22:59;;;;;;;9.77;4.13;;;15.40;99.90;;;;;;5054539;28;20053;-77
2023/10/06 11:25:28;;;;;;;9.88;4.18;;;15.50;99.90;;;;;;5047887;28;20045;-78
2023/10/06 11:28:03;;;;;;;12.73;4.47;;;15.50;99.90;;;;;;5051547;28;20049;-78
2023/10/06 11:30:33;;;;;;;11.85;4.57;;;15.60;99.90;;;;;;5041411;28;20044;-78
2023/10/06 11:33:05;;;;;;;8.95;3.90;;;15.70;99.90;;;;;;5048904;28;20495;-76
2023/10/06 11:35:40;;;;;;;8.45;4.60;;;15.80;99.90;;;;;;5044184;28;20053;-76
2023/10/06 11:38:11;;;;;;;9.98;4.13;;;15.90;99.90;;;;;;5045278;28;20041;-76
2023/10/06 11:40:40;;;;;;;11.88;3.95;;;15.90;99.90;;;;;;5046202;28;20471;-78
2023/10/06 11:43:21;;;;;;;8.70;4.15;;;15.90;99.90;;;;;;5045659;28;20048;-78
2023/10/06 11:45:57;;;;;;;14.75;4.57;;;16.00;99.90;;;;;;5023258;28;20122;-76
2023/10/06 11:48:25;;;;;;;5.90;3.92;;;16.10;99.90;;;;;;5043929;28;20115;-76
2023/10/06 11:51:06;;;;;;;10.68;4.22;;;16.20;99.90;;;;;;5051984;28;20049;-76
2023/10/06 11:53:35;;;;;;;13.02;4.22;;;16.20;99.90;;;;;;5045528;28;20055;-76
2023/10/06 11:56:10;;;;;;;10.05;4.18;;;16.30;99.90;;;;;;5048161;28;20044;-76
2023/10/06 11:58:41;;;;;;;8.82;3.80;;;16.30;99.90;;;;;;5041367;28;20119;-76
2023/10/06 12:01:31;;;;;;;15.20;4.28;;;16.40;99.90;;;;;;5039357;28;20049;-76
2023/10/06 12:04:00;;;;;;;11.30;4.03;;;16.40;99.90;;;;;;5048868;28;20085;-76
2023/10/06 12:06:37;;;;;;;8.23;4.45;;;16.50;99.90;;;;;;5050424;28;20049;-75
2023/10/06 12:09:08;;;;;;;8.77;3.63;;;16.50;99.90;;;;;;5046916;28;20045;-76
2023/10/06 12:11:34;;;;;;;6.65;3.75;;;16.60;99.90;;;;;;5045087;28;20056;-76
2023/10/06 12:14:01;;;;;;;9.32;4.97;;;16.60;99.90;;;;;;5042598;28;20726;-78
2023/10/06 12:16:30;;;;;;;8.38;4.20;;;16.70;99.90;;;;;;5043027;28;20056;-78
2023/10/06 12:18:57;;;;;;;9.95;4.35;;;16.80;99.90;;;;;;5050014;28;20045;-78
2023/10/06 12:21:23;;;;;;;13.20;4.00;;;16.80;99.90;;;;;;5052508;28;20441;-78
2023/10/06 12:23:52;;;;;;;11.00;5.20;;;16.90;99.90;;;;;;5045647;28;20050;-76
2023/10/06 12:26:19;;;;;;;11.75;5.55;;;17.00;99.90;;;;;;5030283;28;20439;-78
2023/10/06 12:28:46;;;;;;;9.02;5.45;;;17.00;99.90;;;;;;5042669;28;20053;-78
2023/10/06 12:31:13;;;;;;;11.30;4.75;;;17.10;99.90;;;;;;5044466;28;20041;-78
2023/10/06 12:33:39;;;;;;;10.48;4.95;;;17.10;99.90;;;;;;5051618;28;20052;-77
2023/10/06 12:36:08;;;;;;;9.80;4.47;;;17.20;99.90;;;;;;5053395;28;20519;-78
2023/10/06 12:38:36;;;;;;;8.02;4.05;;;17.30;99.90;;;;;;5041302;28;20049;-75
2023/10/06 12:41:06;;;;;;;11.02;4.93;;;17.40;99.90;;;;;;5046753;28;20050;-76
2023/10/06 12:43:36;;;;;;;10.20;4.43;;;17.50;99.90;;;;;;5039292;28;20133;-76
2023/10/06 12:46:04;;;;;;;11.43;3.90;;;17.50;99.90;;;;;;5027641;28;20508;-76
2023/10/06 12:48:32;;;;;;;9.35;4.13;;;17.50;99.90;;;;;;5047963;28;20045;-76
2023/10/06 12:50:58;;;;;;;9.18;4.20;;;17.50;99.90;;;;;;5049200;28;20057;-76
2023/10/06 12:53:25;;;;;;;9.95;3.92;;;17.70;99.90;;;;;;5041608;28;20049;-78
2023/10/06 12:55:56;;;;;;;11.60;4.00;;;17.80;99.90;;;;;;5046929;28;20056;-76
2023/10/06 12:58:23;;;;;;;9.00;4.10;;;17.70;99.90;;;;;;5041213;28;20080;-76
2023/10/06 13:00:50;;;;;;;7.65;3.95;;;17.90;99.90;;;;;;5042227;28;20081;-76
2023/10/06 13:03:17;;;;;;;8.30;4.50;;;17.90;99.90;;;;;;5048371;28;20147;-76
2023/10/06 13:05:48;;;;;;;10.25;4.03;;;17.90;99.90;;;;;;5046680;28;20420;-76
2023/10/06 13:08:20;;;;;;;10.93;4.40;;;18.00;99.90;;;;;;5021278;28;20045;-76
2023/10/06 13:10:48;;;;;;;10.63;4.00;;;18.00;99.90;;;;;;5044637;28;20127;-77
2023/10/06 13:13:16;;;;;;;5.97;2.97;;;18.10;99.90;;;;;;5039129;28;20045;-76
2023/10/06 13:15:45;;;;;;;11.57;4.15;;;18.20;99.90;;;;;;5042911;28;20052;-76
2023/10/06 13:18:13;;;;;;;10.02;3.35;;;18.20;99.90;;;;;;5041886;28;20036;-76